Time;durP1;ratioP1;P1;durP2;ratioP2;P2;SDS_P1;SDS_P2;PMS_P1;PMS_P2;Temp;Humidity;BMP_temperature;BMP_pressure;BME280_temperature;BME280_humidity;BME280_pressure;Samples;Min_cycle;Max_cycle;Signal;HPM_P1;HPM_P2
2021/06/02 00:00:16;;;;;;;4.07;3.77;;;11.70;99.90;;;;;;6172236;23;20398;-90
2021/06/02 00:02:47;;;;;;;3.93;3.63;;;11.90;99.90;;;;;;6181152;23;20402;-89
2021/06/02 00:05:13;;;;;;;4.03;3.73;;;11.90;99.90;;;;;;6180807;23;20807;-89
2021/06/02 00:10:26;;;;;;;4.20;3.90;;;11.90;99.90;;;;;;6210697;23;20413;-89
2021/06/02 00:12:54;;;;;;;4.60;4.23;;;11.90;99.90;;;;;;6180254;23;20403;-90
2021/06/02 00:15:20;;;;;;;4.30;4.00;;;11.90;99.90;;;;;;6205316;23;20395;-89
2021/06/02 00:17:46;;;;;;;5.00;4.50;;;11.80;99.90;;;;;;6180748;23;20174;-89
2021/06/02 00:20:13;;;;;;;4.07;3.77;;;11.70;99.90;;;;;;6180926;23;20481;-89
2021/06/02 00:22:39;;;;;;;5.03;4.60;;;11.60;99.90;;;;;;6180741;23;20173;-89
2021/06/02 00:25:07;;;;;;;4.30;3.90;;;11.50;99.90;;;;;;6180413;23;20395;-89
2021/06/02 00:27:36;;;;;;;4.40;4.00;;;11.30;99.90;;;;;;6180373;23;20426;-90
2021/06/02 00:30:05;;;;;;;4.67;4.27;;;11.20;99.90;;;;;;6206206;23;20403;-90
2021/06/02 00:32:33;;;;;;;4.63;4.33;;;11.30;99.90;;;;;;6180307;23;20504;-90
2021/06/02 00:35:02;;;;;;;4.30;3.90;;;11.20;99.90;;;;;;6181072;23;20402;-89
2021/06/02 00:37:28;;;;;;;4.03;3.70;;;11.10;99.90;;;;;;6155818;23;20446;-89
2021/06/02 00:40:17;;;;;;;4.60;4.30;;;11.20;99.90;;;;;;6180326;23;20925;-90
2021/06/02 00:42:46;;;;;;;4.03;3.73;;;11.20;99.90;;;;;;6181129;23;20402;-89
2021/06/02 00:45:16;;;;;;;4.10;3.70;;;11.10;99.90;;;;;;6180628;23;20394;-89
2021/06/02 00:47:44;;;;;;;4.10;3.80;;;11.30;99.90;;;;;;6181166;23;20967;-89
2021/06/02 00:50:10;;;;;;;5.73;4.90;;;11.40;99.90;;;;;;6180373;23;20395;-89
2021/06/02 00:52:38;;;;;;;4.40;4.07;;;11.40;99.90;;;;;;6180565;23;20430;-89
2021/06/02 00:55:04;;;;;;;4.30;4.00;;;11.50;99.90;;;;;;6180095;23;20394;-89
2021/06/02 00:57:35;;;;;;;4.97;4.57;;;11.40;99.90;;;;;;6180684;23;20461;-89
2021/06/02 01:00:12;;;;;;;5.53;4.73;;;11.20;99.90;;;;;;6176232;23;20424;-89
2021/06/02 01:02:44;;;;;;;4.43;3.90;;;11.10;99.90;;;;;;6180757;23;20930;-89
2021/06/02 01:05:12;;;;;;;4.90;4.40;;;11.10;99.90;;;;;;6178337;23;20429;-89
2021/06/02 01:07:39;;;;;;;5.80;4.40;;;11.00;99.90;;;;;;6179886;23;20407;-89
2021/06/02 01:10:06;;;;;;;5.20;4.70;;;10.90;99.90;;;;;;6179845;23;20414;-89
2021/06/02 01:12:32;;;;;;;4.70;4.30;;;10.80;99.90;;;;;;6180177;23;20418;-89
2021/06/02 01:15:00;;;;;;;4.30;3.90;;;10.80;99.90;;;;;;6154887;23;20859;-89
2021/06/02 01:17:28;;;;;;;4.50;4.20;;;10.70;99.90;;;;;;6180396;23;20442;-89
2021/06/02 01:20:04;;;;;;;4.17;3.87;;;10.70;99.90;;;;;;6179897;23;20415;-89
2021/06/02 01:22:34;;;;;;;4.40;4.00;;;10.60;99.90;;;;;;6179681;23;20398;-89
2021/06/02 01:25:18;;;;;;;4.00;3.70;;;10.50;99.90;;;;;;6179889;23;20383;-89
2021/06/02 01:27:48;;;;;;;4.20;3.90;;;10.30;99.90;;;;;;6180178;23;20768;-89
2021/06/02 01:30:17;;;;;;;4.27;3.93;;;10.40;99.90;;;;;;6181577;23;20382;-89
2021/06/02 01:32:49;;;;;;;4.10;3.80;;;10.40;99.90;;;;;;6182384;23;20501;-89
2021/06/02 01:35:33;;;;;;;5.13;4.10;;;10.40;99.90;;;;;;6176194;23;20397;-89
2021/06/02 01:38:30;;;;;;;4.53;4.13;;;10.30;99.90;;;;;;6180335;23;20413;-89
2021/06/02 01:41:42;;;;;;;4.20;3.80;;;10.20;99.90;;;;;;6182120;23;20419;-89
2021/06/02 01:44:36;;;;;;;4.67;3.53;;;10.20;99.90;;;;;;6180395;23;20445;-89
2021/06/02 01:47:31;;;;;;;4.80;4.40;;;10.20;99.90;;;;;;6181352;23;20410;-89
2021/06/02 01:50:19;;;;;;;3.60;3.30;;;10.10;99.90;;;;;;6181632;23;20401;-89
2021/06/02 01:53:00;;;;;;;3.97;3.67;;;10.10;99.90;;;;;;6181978;23;20408;-89
2021/06/02 01:56:03;;;;;;;3.77;3.47;;;10.10;99.90;;;;;;6207761;23;20390;-89
2021/06/02 01:59:06;;;;;;;3.73;3.53;;;10.10;99.90;;;;;;6182511;23;20412;-89
2021/06/02 02:01:56;;;;;;;3.50;3.20;;;10.10;99.90;;;;;;6181524;23;20401;-90
2021/06/02 02:04:56;;;;;;;4.13;3.40;;;10.10;99.90;;;;;;6181947;23;20915;-89
2021/06/02 02:07:31;;;;;;;4.00;3.60;;;10.10;99.90;;;;;;6181860;23;20884;-89
2021/06/02 02:10:32;;;;;;;4.00;3.70;;;10.00;99.90;;;;;;6181380;23;20424;-89
2021/06/02 02:13:25;;;;;;;7.07;3.67;;;10.10;99.90;;;;;;6182687;23;20408;-89
2021/06/02 02:16:00;;;;;;;4.13;3.67;;;10.20;99.90;;;;;;6181607;23;20544;-89
2021/06/02 02:18:57;;;;;;;3.60;3.30;;;10.30;99.90;;;;;;6182233;23;20401;-89
2021/06/02 02:21:41;;;;;;;4.30;3.97;;;10.30;99.90;;;;;;6182427;23;20416;-89
2021/06/02 02:24:12;;;;;;;4.00;3.70;;;10.20;99.90;;;;;;6181474;23;20914;-89
2021/06/02 02:26:56;;;;;;;4.77;4.17;;;10.10;99.90;;;;;;6181985;23;20402;-89
2021/06/02 02:30:00;;;;;;;4.20;3.90;;;10.10;99.90;;;;;;6181892;23;20416;-89
2021/06/02 02:32:47;;;;;;;4.33;3.53;;;10.00;99.90;;;;;;6091784;23;20404;-89
2021/06/02 02:35:12;;;;;;;4.00;3.53;;;9.90;99.90;;;;;;6091272;23;20404;-89
2021/06/02 02:37:56;;;;;;;4.00;3.50;;;9.80;99.90;;;;;;6146629;23;20671;-89
2021/06/02 02:40:50;;;;;;;4.37;4.07;;;9.90;99.90;;;;;;6181586;23;20486;-89
2021/06/02 02:43:23;;;;;;;4.27;3.97;;;9.80;99.90;;;;;;6170820;23;20409;-89
2021/06/02 02:46:10;;;;;;;4.00;3.70;;;9.70;99.90;;;;;;6182271;23;20400;-89
2021/06/02 02:48:47;;;;;;;3.90;3.60;;;9.70;99.90;;;;;;6181827;23;20733;-89
2021/06/02 02:51:28;;;;;;;4.07;3.60;;;9.60;99.90;;;;;;6181222;23;20391;-89
2021/06/02 02:54:15;;;;;;;4.97;3.60;;;9.60;99.90;;;;;;6182207;23;20406;-89
2021/06/02 02:56:52;;;;;;;4.20;3.80;;;9.50;99.90;;;;;;6182081;23;20479;-89
2021/06/02 02:59:48;;;;;;;4.00;3.60;;;9.40;99.90;;;;;;6181313;23;20395;-90
2021/06/02 03:02:47;;;;;;;4.37;4.00;;;9.50;99.90;;;;;;6165981;23;20441;-89
2021/06/02 03:05:22;;;;;;;5.13;4.73;;;9.50;99.90;;;;;;6182830;23;20403;-89
2021/06/02 03:07:59;;;;;;;6.73;6.10;;;9.60;99.90;;;;;;6182068;23;20384;-89
2021/06/02 03:10:26;;;;;;;5.97;5.47;;;9.70;99.90;;;;;;6181535;23;20413;-89
2021/06/02 03:13:16;;;;;;;6.27;5.67;;;9.60;99.90;;;;;;6182000;23;20979;-89
2021/06/02 03:15:48;;;;;;;6.30;5.70;;;9.70;99.90;;;;;;6206055;23;20439;-89
2021/06/02 03:18:38;;;;;;;6.70;6.10;;;9.70;99.90;;;;;;6180991;23;20443;-89
2021/06/02 03:21:50;;;;;;;6.27;5.87;;;9.60;99.90;;;;;;6182020;23;20427;-89
2021/06/02 03:24:58;;;;;;;7.20;6.37;;;9.40;99.90;;;;;;6162932;23;20402;-89
2021/06/02 03:27:32;;;;;;;5.63;5.17;;;9.30;99.90;;;;;;6151297;23;20401;-88
2021/06/02 03:30:25;;;;;;;6.77;6.27;;;9.20;99.90;;;;;;6183106;23;20399;-89
2021/06/02 03:33:27;;;;;;;6.40;5.80;;;9.20;99.90;;;;;;6180806;23;21127;-89
2021/06/02 03:35:58;;;;;;;5.40;4.90;;;9.10;99.90;;;;;;6181120;23;20451;-89
2021/06/02 03:38:50;;;;;;;10.07;5.90;;;9.20;99.90;;;;;;6208225;23;20387;-89
2021/06/02 03:41:48;;;;;;;7.93;5.13;;;9.10;99.90;;;;;;6180947;23;20412;-89
2021/06/02 03:44:32;;;;;;;5.83;5.33;;;9.10;99.90;;;;;;6150823;23;20744;-89
2021/06/02 03:47:01;;;;;;;5.90;5.00;;;9.00;99.90;;;;;;6180578;23;20792;-89
2021/06/02 03:49:49;;;;;;;4.97;4.57;;;8.90;99.90;;;;;;6181389;23;20394;-89
2021/06/02 03:52:48;;;;;;;5.10;4.70;;;8.90;99.90;;;;;;6180903;23;20406;-89
2021/06/02 03:55:29;;;;;;;4.80;4.30;;;8.90;99.90;;;;;;6180485;23;20403;-89
2021/06/02 03:58:23;;;;;;;5.13;4.27;;;8.90;99.90;;;;;;6207533;23;20446;-89
2021/06/02 04:01:00;;;;;;;4.23;3.83;;;9.00;99.90;;;;;;6181635;23;20939;-89
2021/06/02 04:03:41;;;;;;;5.37;4.50;;;9.00;99.90;;;;;;6180738;23;20404;-89
2021/06/02 04:06:42;;;;;;;4.20;3.80;;;9.20;99.90;;;;;;6181027;23;20476;-89
2021/06/02 04:09:12;;;;;;;4.73;4.20;;;9.40;99.90;;;;;;6146936;23;20820;-89
2021/06/02 04:12:04;;;;;;;6.67;5.40;;;9.50;99.90;;;;;;6181100;23;20462;-89
2021/06/02 04:14:36;;;;;;;6.00;5.40;;;9.60;99.90;;;;;;6178196;23;20400;-89
2021/06/02 04:17:02;;;;;;;6.67;6.17;;;9.70;99.90;;;;;;6179085;23;20443;-89
2021/06/02 04:19:32;;;;;;;6.70;6.10;;;9.40;99.90;;;;;;6180435;23;20393;-89
2021/06/02 04:22:03;;;;;;;6.77;6.10;;;9.20;99.90;;;;;;6180814;23;20461;-90
2021/06/02 04:24:31;;;;;;;6.13;5.63;;;9.20;99.90;;;;;;6180453;23;20401;-89
2021/06/02 04:26:57;;;;;;;6.00;5.50;;;9.30;99.90;;;;;;6180398;23;20405;-88
2021/06/02 04:32:05;;;;;;;7.40;6.07;;;9.50;99.90;;;;;;6207099;23;20395;-89
2021/06/02 04:34:32;;;;;;;6.20;5.70;;;9.60;99.90;;;;;;6176290;23;20403;-89
2021/06/02 04:37:00;;;;;;;6.20;5.60;;;9.60;99.90;;;;;;6181110;23;20497;-89
2021/06/02 04:39:27;;;;;;;5.27;4.87;;;9.60;99.90;;;;;;6180013;23;20721;-89
2021/06/02 04:41:55;;;;;;;5.40;5.00;;;9.70;99.90;;;;;;6180450;23;20395;-89
2021/06/02 04:44:24;;;;;;;5.87;5.37;;;9.70;99.90;;;;;;6180914;23;20394;-89
2021/06/02 04:46:50;;;;;;;8.53;4.93;;;9.80;99.90;;;;;;6206783;23;20395;-89
2021/06/02 04:49:17;;;;;;;5.83;5.33;;;9.90;99.90;;;;;;6180152;23;20407;-88
2021/06/02 04:52:21;;;;;;;6.30;5.70;;;9.90;99.90;;;;;;6155774;23;20392;-89
2021/06/02 04:55:32;;;;;;;5.83;5.30;;;9.90;99.90;;;;;;6180872;23;20889;-92
2021/06/02 04:58:15;;;;;;;6.07;5.57;;;10.00;99.90;;;;;;6181084;23;20450;-89
2021/06/02 05:01:32;;;;;;;5.87;5.27;;;10.00;99.90;;;;;;6182156;23;20470;-89
2021/06/02 05:04:26;;;;;;;5.10;4.70;;;10.00;99.90;;;;;;6093113;23;20405;-90
2021/06/02 05:06:57;;;;;;;5.90;5.40;;;10.00;99.90;;;;;;6182937;23;20397;-89
2021/06/02 05:10:13;;;;;;;5.10;4.70;;;10.10;99.90;;;;;;6182862;23;20412;-89
2021/06/02 05:13:09;;;;;;;7.73;5.20;;;10.20;99.90;;;;;;6092625;23;20408;-89
2021/06/02 05:16:20;;;;;;;5.57;5.07;;;10.30;99.90;;;;;;6182205;23;20493;-89
2021/06/02 05:19:45;;;;;;;5.47;5.00;;;10.40;99.90;;;;;;6182458;23;20777;-89
2021/06/02 05:22:35;;;;;;;7.63;5.07;;;10.60;99.90;;;;;;6209364;23;20386;-89
2021/06/02 05:25:25;;;;;;;19.10;7.40;;;10.90;99.90;;;;;;6158542;23;20404;-89
2021/06/02 05:28:13;;;;;;;6.00;5.47;;;11.10;99.90;;;;;;6182485;23;20404;-89
2021/06/02 05:31:02;;;;;;;5.63;5.10;;;11.30;99.90;;;;;;6182596;23;20420;-89
2021/06/02 05:34:18;;;;;;;5.30;4.90;;;11.50;99.90;;;;;;6182810;23;20398;-89
2021/06/02 05:36:50;;;;;;;6.33;5.37;;;11.70;99.90;;;;;;6133334;23;20445;-89
2021/06/02 05:39:43;;;;;;;6.63;5.03;;;11.80;99.90;;;;;;6177579;23;20434;-90
2021/06/02 05:42:37;;;;;;;5.07;4.67;;;12.00;99.90;;;;;;6182084;23;20441;-89
2021/06/02 05:45:27;;;;;;;5.93;5.43;;;12.30;99.90;;;;;;6181991;23;20482;-89
2021/06/02 05:48:04;;;;;;;6.00;5.50;;;12.30;99.90;;;;;;6181354;23;20387;-89
2021/06/02 05:50:33;;;;;;;8.63;5.80;;;12.50;99.90;;;;;;6181933;23;20406;-89
2021/06/02 05:53:21;;;;;;;6.37;5.77;;;12.60;99.90;;;;;;6208998;23;20738;-89
2021/06/02 05:56:17;;;;;;;6.50;5.90;;;12.80;99.90;;;;;;6182274;23;20952;-89
2021/06/02 05:59:04;;;;;;;5.87;5.37;;;12.60;99.90;;;;;;6181764;23;20406;-88
2021/06/02 06:01:51;;;;;;;6.97;5.70;;;12.40;99.90;;;;;;6182376;23;20402;-89
2021/06/02 06:04:55;;;;;;;8.40;6.23;;;12.50;99.90;;;;;;6181591;23;20413;-89
2021/06/02 06:07:44;;;;;;;7.10;6.10;;;12.70;99.90;;;;;;6181440;23;20524;-89
2021/06/02 06:10:39;;;;;;;6.80;6.10;;;12.90;99.90;;;;;;6182346;23;20556;-90
2021/06/02 06:13:43;;;;;;;6.40;5.90;;;13.20;99.90;;;;;;6182571;23;20429;-89
2021/06/02 06:16:30;;;;;;;6.47;5.10;;;13.40;99.90;;;;;;6181098;23;20445;-89
2021/06/02 06:19:35;;;;;;;7.07;5.30;;;13.50;99.90;;;;;;6182261;23;20433;-90
2021/06/02 06:22:08;;;;;;;6.20;5.73;;;13.60;99.90;;;;;;6209355;23;20873;-90
2021/06/02 06:25:05;;;;;;;6.37;5.77;;;13.60;99.90;;;;;;6208059;23;20387;-89
2021/06/02 06:27:54;;;;;;;6.27;5.50;;;13.60;99.90;;;;;;6201406;23;20407;-89
2021/06/02 06:30:34;;;;;;;5.70;5.20;;;13.70;99.90;;;;;;6182450;23;20406;-89
2021/06/02 06:33:13;;;;;;;6.10;5.60;;;13.70;99.90;;;;;;6182069;23;20876;-90
2021/06/02 06:35:44;;;;;;;5.97;5.47;;;14.00;99.90;;;;;;6181341;23;20473;-89
2021/06/02 06:38:48;;;;;;;6.73;6.03;;;14.10;99.90;;;;;;6181794;23;20888;-89
2021/06/02 06:41:41;;;;;;;7.40;6.40;;;14.20;99.90;;;;;;6115157;23;20385;-90
2021/06/02 06:44:09;;;;;;;7.73;6.03;;;14.30;99.90;;;;;;6180817;23;20403;-89
2021/06/02 06:46:46;;;;;;;8.47;6.67;;;14.50;99.90;;;;;;6207692;23;20407;-90
2021/06/02 06:49:15;;;;;;;9.17;5.70;;;14.70;99.90;;;;;;6182167;23;20395;-89
2021/06/02 06:51:44;;;;;;;5.80;5.30;;;14.90;99.90;;;;;;6182080;23;20484;-90
2021/06/02 06:54:13;;;;;;;5.87;5.37;;;15.20;99.30;;;;;;6207196;23;20401;-90
2021/06/02 06:56:43;;;;;;;5.83;5.23;;;15.50;98.20;;;;;;6181648;23;20446;-89
2021/06/02 06:59:10;;;;;;;5.73;5.00;;;15.50;98.30;;;;;;6182898;23;20399;-89
2021/06/02 07:01:39;;;;;;;5.60;5.10;;;15.60;98.90;;;;;;6157543;23;20406;-90
2021/06/02 07:04:06;;;;;;;5.10;4.60;;;15.70;98.40;;;;;;6181491;23;20541;-90
2021/06/02 07:06:35;;;;;;;6.00;4.87;;;15.80;98.00;;;;;;6177702;23;20402;-90
2021/06/02 07:09:04;;;;;;;9.80;5.20;;;16.20;97.00;;;;;;6180755;23;20415;-90
2021/06/02 07:11:36;;;;;;;4.80;4.10;;;16.30;96.20;;;;;;6181577;23;20403;-89
2021/06/02 07:14:03;;;;;;;8.40;4.43;;;16.40;96.00;;;;;;6183644;23;20394;-89
2021/06/02 07:16:32;;;;;;;3.80;3.50;;;16.50;95.30;;;;;;6157047;23;20527;-90
2021/06/02 07:19:01;;;;;;;4.57;4.17;;;16.60;94.20;;;;;;6180636;23;20399;-90
2021/06/02 07:21:28;;;;;;;4.80;4.20;;;16.70;93.70;;;;;;6179701;23;20410;-89
2021/06/02 07:23:54;;;;;;;4.67;4.37;;;16.70;93.50;;;;;;6180658;23;21467;-89
2021/06/02 07:26:20;;;;;;;4.50;3.73;;;16.80;94.30;;;;;;6180953;23;20678;-90
2021/06/02 07:28:46;;;;;;;4.00;3.70;;;16.90;94.70;;;;;;6180923;23;20395;-90
2021/06/02 07:31:13;;;;;;;4.17;3.77;;;17.10;95.00;;;;;;6207352;23;20405;-90
2021/06/02 07:33:43;;;;;;;3.73;3.43;;;17.40;95.30;;;;;;6181359;23;20423;-89
2021/06/02 07:36:11;;;;;;;4.30;4.00;;;17.70;94.90;;;;;;6182053;23;20446;-90
2021/06/02 07:38:38;;;;;;;5.03;4.57;;;17.90;96.70;;;;;;6180140;23;20766;-90
2021/06/02 07:41:04;;;;;;;4.53;4.13;;;18.00;96.60;;;;;;6180388;23;20437;-89
2021/06/02 07:43:30;;;;;;;4.80;4.40;;;18.20;95.90;;;;;;6181033;23;20772;-90
2021/06/02 07:45:56;;;;;;;4.37;3.97;;;18.10;94.00;;;;;;6180875;23;20174;-90
2021/06/02 07:48:22;;;;;;;4.90;4.50;;;18.10;94.70;;;;;;6180860;23;20413;-89
2021/06/02 07:50:48;;;;;;;4.70;4.30;;;18.30;95.10;;;;;;6181197;23;20801;-89
2021/06/02 07:53:14;;;;;;;5.87;4.83;;;18.50;94.30;;;;;;6181031;23;20197;-89
2021/06/02 07:55:43;;;;;;;6.23;4.50;;;18.80;93.70;;;;;;6180830;23;20398;-89
2021/06/02 07:58:08;;;;;;;6.47;4.20;;;18.90;93.20;;;;;;6180729;23;20602;-90
2021/06/02 08:00:34;;;;;;;5.10;3.77;;;18.90;92.70;;;;;;6182995;23;20395;-89
2021/06/02 08:03:00;;;;;;;3.97;3.57;;;18.70;91.90;;;;;;6206949;23;20198;-89
2021/06/02 08:05:26;;;;;;;4.73;3.80;;;18.70;92.90;;;;;;6183030;23;20391;-90
2021/06/02 08:07:52;;;;;;;7.83;3.90;;;18.80;92.20;;;;;;6177475;23;20171;-90
2021/06/02 08:10:25;;;;;;;4.00;3.70;;;18.90;91.40;;;;;;6181280;23;20406;-90
2021/06/02 08:12:51;;;;;;;3.40;3.20;;;18.90;91.30;;;;;;6178628;23;20409;-90
2021/06/02 08:15:20;;;;;;;4.10;3.80;;;19.00;90.90;;;;;;6204959;23;20391;-90
2021/06/02 08:17:47;;;;;;;5.07;3.60;;;19.10;90.60;;;;;;6178888;23;20447;-90
2021/06/02 08:20:14;;;;;;;4.30;3.97;;;19.00;90.80;;;;;;6180772;23;20485;-90
2021/06/02 08:22:40;;;;;;;3.93;3.53;;;19.20;90.80;;;;;;6180438;23;20722;-89
2021/06/02 08:25:13;;;;;;;3.83;3.53;;;19.20;90.20;;;;;;6179445;23;20398;-89
2021/06/02 08:27:40;;;;;;;4.17;3.40;;;19.00;89.20;;;;;;6181166;23;20406;-90
2021/06/02 08:30:08;;;;;;;4.27;3.97;;;18.90;90.10;;;;;;6155825;23;20741;-89
2021/06/02 08:32:35;;;;;;;5.27;3.70;;;19.30;88.40;;;;;;6181476;23;20770;-89
2021/06/02 08:35:01;;;;;;;3.83;3.63;;;19.40;87.10;;;;;;6180445;23;20726;-89
2021/06/02 08:37:27;;;;;;;3.67;3.43;;;19.20;88.00;;;;;;6180504;23;20438;-89
2021/06/02 08:39:53;;;;;;;3.87;2.97;;;19.40;88.00;;;;;;6180593;23;20405;-90
2021/06/02 08:42:20;;;;;;;5.23;3.00;;;20.00;85.90;;;;;;6180472;23;20164;-90
2021/06/02 08:44:49;;;;;;;4.20;3.27;;;20.40;81.80;;;;;;6178556;23;20399;-89
2021/06/02 08:47:20;;;;;;;3.80;3.47;;;20.30;77.80;;;;;;6193398;23;20456;-89
2021/06/02 08:49:47;;;;;;;6.00;3.77;;;20.30;80.50;;;;;;6180771;23;20399;-89
2021/06/02 08:52:13;;;;;;;3.83;3.47;;;20.60;81.50;;;;;;6179086;23;20776;-89
2021/06/02 08:54:39;;;;;;;3.90;3.60;;;21.00;84.20;;;;;;6180765;23;20394;-89
2021/06/02 08:57:09;;;;;;;5.90;3.10;;;21.10;77.50;;;;;;6180257;23;20442;-89
2021/06/02 08:59:36;;;;;;;4.13;3.30;;;21.30;76.70;;;;;;6180246;23;20166;-89
2021/06/02 09:02:07;;;;;;;3.20;3.00;;;21.30;79.00;;;;;;6180212;23;20407;-89
2021/06/02 09:04:34;;;;;;;4.10;3.20;;;21.50;79.60;;;;;;6179855;23;20777;-90
2021/06/02 09:07:04;;;;;;;3.77;3.47;;;21.70;82.50;;;;;;6181921;23;20402;-89
2021/06/02 09:09:31;;;;;;;3.00;2.53;;;21.80;79.20;;;;;;6180328;23;20415;-90
2021/06/02 09:12:12;;;;;;;5.27;3.23;;;21.80;68.50;;;;;;6178423;23;20456;-90
2021/06/02 09:14:38;;;;;;;3.03;2.83;;;22.00;68.10;;;;;;6179040;23;20410;-89
2021/06/02 09:17:12;;;;;;;3.20;3.00;;;22.30;71.80;;;;;;6179738;23;20477;-90
2021/06/02 09:19:47;;;;;;;3.77;3.00;;;22.40;73.00;;;;;;6179454;23;20421;-90
2021/06/02 09:22:16;;;;;;;5.57;3.07;;;22.70;68.80;;;;;;6205267;23;20455;-90
2021/06/02 09:24:58;;;;;;;3.43;3.13;;;22.60;72.00;;;;;;6175291;23;20409;-90
2021/06/02 09:27:43;;;;;;;3.40;3.20;;;22.80;70.00;;;;;;6178681;23;20450;-90
2021/06/02 09:30:17;;;;;;;3.50;3.20;;;22.90;74.70;;;;;;6179246;23;20429;-90
2021/06/02 09:32:55;;;;;;;3.43;3.13;;;22.90;72.70;;;;;;6155701;23;20429;-90
2021/06/02 09:35:22;;;;;;;3.27;3.00;;;23.10;73.00;;;;;;6178850;23;20614;-90
2021/06/02 09:37:57;;;;;;;3.80;2.70;;;23.40;73.40;;;;;;6178443;23;20712;-89
2021/06/02 09:40:36;;;;;;;3.20;3.00;;;23.60;70.90;;;;;;6178868;23;20394;-89
2021/06/02 09:43:02;;;;;;;3.40;3.10;;;23.40;62.30;;;;;;6155588;23;20931;-90
2021/06/02 09:45:31;;;;;;;3.37;3.07;;;23.10;66.20;;;;;;6178001;23;20399;-90
2021/06/02 09:48:02;;;;;;;3.80;3.27;;;22.90;64.50;;;;;;6180591;23;20403;-90
2021/06/02 09:50:32;;;;;;;3.37;3.07;;;23.10;68.20;;;;;;6180175;23;20689;-90
2021/06/02 09:53:01;;;;;;;3.77;3.47;;;23.30;70.00;;;;;;6180722;23;20752;-90
2021/06/02 09:55:53;;;;;;;4.23;3.13;;;23.60;67.00;;;;;;6179848;23;20510;-90
2021/06/02 09:58:19;;;;;;;2.40;2.20;;;24.00;62.80;;;;;;6208728;23;20387;-90
2021/06/02 10:00:53;;;;;;;5.00;2.90;;;24.00;54.60;;;;;;6176898;23;20398;-90
2021/06/02 10:03:21;;;;;;;2.50;2.30;;;23.90;51.70;;;;;;6180213;23;20164;-90
2021/06/02 10:05:49;;;;;;;2.57;2.37;;;23.90;51.40;;;;;;6179915;23;20522;-91
2021/06/02 10:11:18;;;;;;;3.00;2.80;;;24.00;53.60;;;;;;5113165;27;20928;-90
2021/06/02 10:13:49;;;;;;;3.50;3.20;;;24.00;47.40;;;;;;5097356;28;20447;-91
2021/06/02 10:16:35;;;;;;;3.70;3.40;;;24.00;48.90;;;;;;5096514;28;20447;-92
2021/06/02 10:19:01;;;;;;;2.90;2.70;;;23.70;48.10;;;;;;5100088;28;20431;-90
2021/06/02 10:21:55;;;;;;;3.00;2.57;;;23.80;47.40;;;;;;5098311;28;20449;-90
2021/06/02 10:24:24;;;;;;;2.90;2.70;;;24.20;52.60;;;;;;5087037;28;20181;-90
2021/06/02 10:27:06;;;;;;;3.60;2.93;;;24.20;48.10;;;;;;5112305;27;20435;-90
2021/06/02 10:29:32;;;;;;;2.50;2.33;;;23.90;47.20;;;;;;5098773;28;21104;-90
2021/06/02 10:31:58;;;;;;;3.13;2.90;;;23.70;48.20;;;;;;5099845;28;20424;-90
2021/06/02 10:34:26;;;;;;;3.07;2.73;;;23.90;47.00;;;;;;5099958;28;20185;-90
2021/06/02 10:37:01;;;;;;;3.43;3.23;;;24.20;50.40;;;;;;5099405;28;20209;-91
2021/06/02 10:39:30;;;;;;;2.80;2.40;;;24.40;49.20;;;;;;5098499;28;20759;-90
2021/06/02 10:42:01;;;;;;;3.33;3.13;;;24.60;48.50;;;;;;5099968;28;20442;-91
2021/06/02 10:44:39;;;;;;;2.80;2.60;;;24.80;46.70;;;;;;5100130;28;20451;-90
2021/06/02 10:47:06;;;;;;;6.90;3.30;;;24.90;50.40;;;;;;5098895;28;20442;-90
2021/06/02 10:49:36;;;;;;;4.93;2.87;;;25.40;53.30;;;;;;5104257;28;20483;-90
2021/06/02 10:52:03;;;;;;;3.27;2.83;;;25.60;48.20;;;;;;5103200;27;20428;-90
2021/06/02 10:54:46;;;;;;;2.80;2.60;;;25.50;44.90;;;;;;5095476;28;20462;-90
2021/06/02 10:57:24;;;;;;;7.03;2.90;;;25.40;49.20;;;;;;5098977;28;20447;-91
2021/06/02 11:00:11;;;;;;;3.70;3.23;;;25.60;50.00;;;;;;5100625;28;20924;-90
2021/06/02 11:02:37;;;;;;;3.10;2.80;;;25.80;47.10;;;;;;5099481;28;20440;-91
2021/06/02 11:05:07;;;;;;;2.87;2.67;;;25.30;48.80;;;;;;5100285;28;20439;-91
2021/06/02 11:07:33;;;;;;;3.20;3.00;;;25.80;52.30;;;;;;5101925;28;20198;-91
2021/06/02 11:10:05;;;;;;;3.00;2.60;;;26.20;47.90;;;;;;5099665;28;20984;-91
2021/06/02 11:12:49;;;;;;;5.30;2.63;;;26.30;49.40;;;;;;5096883;28;20447;-90
2021/06/02 11:15:24;;;;;;;3.00;2.80;;;25.70;48.20;;;;;;5108097;27;20446;-90
2021/06/02 11:18:08;;;;;;;3.13;2.93;;;26.00;46.00;;;;;;5099910;28;20459;-90
2021/06/02 11:20:47;;;;;;;3.50;3.30;;;26.00;43.70;;;;;;5093143;28;20439;-91
2021/06/02 11:23:21;;;;;;;3.37;3.17;;;26.10;49.60;;;;;;5085519;28;20452;-90
2021/06/02 11:25:49;;;;;;;3.40;2.80;;;26.30;44.50;;;;;;5086694;28;20613;-90
2021/06/02 11:28:50;;;;;;;3.00;2.80;;;26.30;46.10;;;;;;5087541;28;20448;-91
2021/06/02 11:31:30;;;;;;;3.30;3.00;;;26.50;47.80;;;;;;5022856;28;20835;-91
2021/06/02 11:34:26;;;;;;;2.90;2.70;;;26.50;46.70;;;;;;5074198;28;20618;-91
2021/06/02 11:37:09;;;;;;;4.87;2.90;;;26.60;45.70;;;;;;5082664;28;20564;-91
2021/06/02 11:39:37;;;;;;;3.20;2.90;;;26.90;44.80;;;;;;5085506;28;20618;-91
2021/06/02 11:42:05;;;;;;;3.23;2.73;;;26.90;46.10;;;;;;5086004;28;20439;-91
2021/06/02 11:44:33;;;;;;;5.30;2.83;;;27.00;45.30;;;;;;5085021;28;20444;-90
2021/06/02 11:49:45;;;;;;;5.80;3.27;;;26.70;42.00;;;;;;5083976;28;20506;-91
2021/06/02 11:52:14;;;;;;;3.10;2.90;;;27.10;44.00;;;;;;5082957;28;20863;-91
2021/06/02 11:54:54;;;;;;;2.90;2.70;;;27.40;48.00;;;;;;5084671;28;20917;-91
2021/06/02 11:57:30;;;;;;;4.53;3.00;;;27.10;44.30;;;;;;5084964;28;20428;-90
2021/06/02 11:59:58;;;;;;;2.90;2.70;;;26.90;43.50;;;;;;5086216;28;20428;-90
2021/06/02 12:02:24;;;;;;;4.00;2.87;;;27.10;43.90;;;;;;5082801;28;20434;-91
2021/06/02 12:04:51;;;;;;;3.40;3.20;;;26.90;43.20;;;;;;5084141;28;20802;-91
2021/06/02 12:07:28;;;;;;;3.50;3.20;;;27.20;43.30;;;;;;5083735;28;20289;-90
2021/06/02 12:09:55;;;;;;;3.27;3.00;;;27.00;40.70;;;;;;5095063;27;20484;-90
2021/06/02 12:12:38;;;;;;;3.80;3.50;;;27.00;41.50;;;;;;5085356;28;20531;-90
2021/06/02 12:15:10;;;;;;;3.30;3.10;;;27.00;42.80;;;;;;5084306;28;20459;-91
2021/06/02 12:17:37;;;;;;;4.80;2.50;;;27.00;46.30;;;;;;5068651;28;20483;-91
2021/06/02 12:20:16;;;;;;;3.30;3.00;;;27.10;45.50;;;;;;5071160;28;20591;-91
2021/06/02 12:22:43;;;;;;;3.27;3.03;;;27.70;42.10;;;;;;5081259;28;20509;-91
2021/06/02 12:25:46;;;;;;;3.07;2.57;;;27.70;39.70;;;;;;5083568;28;20505;-92
2021/06/02 12:28:15;;;;;;;3.40;3.10;;;27.80;44.10;;;;;;5078884;28;20500;-92
2021/06/02 12:30:44;;;;;;;4.87;3.00;;;28.00;44.70;;;;;;5083213;28;20646;-91
2021/06/02 12:33:45;;;;;;;4.00;3.20;;;27.40;40.50;;;;;;5081465;28;20462;-91
2021/06/02 12:36:13;;;;;;;4.10;3.80;;;27.30;42.40;;;;;;5086004;28;20264;-91
2021/06/02 12:38:40;;;;;;;4.60;3.07;;;27.70;41.50;;;;;;5080601;28;20445;-91
2021/06/02 12:41:23;;;;;;;3.97;3.53;;;27.90;40.10;;;;;;5083782;28;20512;-92
2021/06/02 12:43:50;;;;;;;6.47;3.33;;;27.70;40.40;;;;;;5081408;28;20479;-91
2021/06/02 12:46:20;;;;;;;3.50;3.20;;;27.30;42.40;;;;;;5079290;28;20475;-91
2021/06/02 12:48:46;;;;;;;3.00;2.80;;;27.80;42.60;;;;;;5077910;28;20502;-91
2021/06/02 12:51:20;;;;;;;3.30;3.10;;;28.20;42.80;;;;;;5081203;28;20444;-91
2021/06/02 12:53:47;;;;;;;2.60;2.50;;;28.50;39.50;;;;;;5086785;28;20543;-92
2021/06/02 12:56:14;;;;;;;3.43;3.13;;;28.50;40.30;;;;;;5082448;28;20812;-92
2021/06/02 12:58:41;;;;;;;3.67;3.40;;;28.70;40.70;;;;;;5081200;28;20592;-92
2021/06/02 13:01:10;;;;;;;3.67;3.33;;;28.60;43.50;;;;;;5084632;28;20432;-91
2021/06/02 13:03:41;;;;;;;4.50;2.90;;;28.90;42.50;;;;;;5085077;28;20487;-91
2021/06/02 13:06:09;;;;;;;3.30;3.10;;;29.30;38.40;;;;;;5087176;28;21032;-91
2021/06/02 13:08:42;;;;;;;2.80;2.70;;;28.90;36.50;;;;;;5084065;28;20455;-92
2021/06/02 13:11:30;;;;;;;3.57;3.27;;;28.50;35.60;;;;;;5099322;27;20439;-91
2021/06/02 13:14:01;;;;;;;4.67;3.27;;;28.40;36.10;;;;;;5084112;28;20500;-92
2021/06/02 13:16:27;;;;;;;3.20;2.90;;;28.10;37.60;;;;;;5082072;28;20432;-91
2021/06/02 13:19:07;;;;;;;4.90;3.50;;;28.70;38.60;;;;;;5079734;28;20893;-90
2021/06/02 13:21:44;;;;;;;2.90;2.60;;;29.50;42.80;;;;;;5082030;28;20464;-90
2021/06/02 13:24:15;;;;;;;4.00;2.70;;;30.10;41.80;;;;;;5081793;28;20424;-92
2021/06/02 13:26:52;;;;;;;4.97;3.53;;;30.60;41.30;;;;;;5083459;28;20451;-90
2021/06/02 13:29:18;;;;;;;3.13;2.93;;;30.20;38.50;;;;;;5082559;28;20500;-90
2021/06/02 13:31:52;;;;;;;5.07;3.60;;;30.20;39.00;;;;;;5085166;28;20828;-90
2021/06/02 13:34:35;;;;;;;4.60;3.57;;;30.80;38.80;;;;;;5083493;28;20458;-90
2021/06/02 13:37:21;;;;;;;3.20;3.00;;;32.40;37.30;;;;;;5081021;28;20432;-90
2021/06/02 13:40:10;;;;;;;3.07;2.67;;;34.50;31.60;;;;;;5082381;28;20448;-90
2021/06/02 13:42:36;;;;;;;2.93;2.73;;;37.10;32.70;;;;;;5080425;28;20487;-91
2021/06/02 13:45:02;;;;;;;4.30;2.90;;;38.10;28.40;;;;;;5082243;28;20443;-91
2021/06/02 13:47:35;;;;;;;5.00;3.30;;;38.50;29.50;;;;;;5082125;28;20497;-90